createdAt,value
2019-05-02T00:00:19.943Z,95572.78
2019-05-02T00:02:47.169Z,95577.71
2019-05-02T00:05:14.446Z,95568.61
2019-05-02T00:07:41.503Z,95569.30
2019-05-02T00:10:09.618Z,95563.25
2019-05-02T00:12:36.922Z,95561.95
2019-05-02T00:15:04.257Z,95559.38
2019-05-02T00:17:31.564Z,95560.11
2019-05-02T00:19:59.669Z,95558.90
2019-05-02T00:22:27.042Z,95565.66
2019-05-02T00:24:54.076Z,95560.55
2019-05-02T00:27:21.198Z,95552.45
2019-05-02T00:29:48.233Z,95557.89
2019-05-02T00:32:18.281Z,95557.13
2019-05-02T00:34:44.533Z,95554.73
2019-05-02T00:37:11.891Z,95553.97
2019-05-02T00:39:38.933Z,95550.91
2019-05-02T00:42:12.331Z,95548.16
2019-05-02T00:44:34.706Z,95541.17
2019-05-02T00:47:06.180Z,95548.38
2019-05-02T00:49:30.882Z,95541.53
2019-05-02T00:52:01.359Z,95539.09
2019-05-02T00:54:27.075Z,95536.31
2019-05-02T00:56:54.369Z,95532.39
2019-05-02T00:59:21.402Z,95533.20
2019-05-02T01:01:48.474Z,95525.20
2019-05-02T01:04:15.779Z,95516.55
2019-05-02T01:06:44.779Z,95517.86
2019-05-02T01:09:13.044Z,95516.38
2019-05-02T01:11:40.399Z,95517.95
2019-05-02T01:14:07.745Z,95513.54
2019-05-02T01:16:34.794Z,95508.50
2019-05-02T01:19:02.153Z,95513.09
2019-05-02T01:21:29.512Z,95511.64
2019-05-02T01:23:58.958Z,95512.59
2019-05-02T01:26:29.367Z,95511.73
2019-05-02T01:28:55.705Z,95508.41
2019-05-02T01:31:23.022Z,95502.33
2019-05-02T01:33:50.379Z,95505.13
2019-05-02T01:36:17.424Z,95506.25
2019-05-02T01:38:44.722Z,95505.66
2019-05-02T01:41:11.783Z,95501.02
2019-05-02T01:43:38.806Z,95498.50
2019-05-02T01:46:05.846Z,95499.24
2019-05-02T01:48:33.193Z,95502.57
2019-05-02T01:51:04.472Z,95501.84
2019-05-02T01:53:33.780Z,95502.69
2019-05-02T01:55:59.354Z,95502.37
2019-05-02T01:58:26.501Z,95501.84
2019-05-02T02:00:53.841Z,95502.39
2019-05-02T02:03:20.887Z,95494.72
2019-05-02T02:05:47.927Z,95493.82
2019-05-02T02:08:14.974Z,95489.81
2019-05-02T02:10:43.835Z,95488.05
2019-05-02T02:13:10.742Z,95490.73
2019-05-02T02:15:38.059Z,95487.50
2019-05-02T02:18:05.093Z,95492.09
2019-05-02T02:20:32.482Z,95487.31
2019-05-02T02:22:59.526Z,95485.84
2019-05-02T02:25:26.573Z,95487.02
2019-05-02T02:27:54.971Z,95483.65
2019-05-02T02:30:24.658Z,95486.02
2019-05-02T02:32:52.126Z,95487.07
2019-05-02T02:35:19.172Z,95486.32
2019-05-02T02:37:52.978Z,95484.77
2019-05-02T02:40:15.313Z,95487.28
2019-05-02T02:42:42.353Z,95482.67
2019-05-02T02:45:13.046Z,95480.55
2019-05-02T02:47:38.412Z,95486.59
2019-05-02T02:50:05.776Z,95481.86
2019-05-02T02:52:37.887Z,95478.80
2019-05-02T02:55:02.110Z,95479.80
2019-05-02T02:57:29.145Z,95484.30
2019-05-02T03:00:06.110Z,95479.86
2019-05-02T03:02:26.322Z,95477.44
2019-05-02T03:04:53.373Z,95482.03
2019-05-02T03:07:26.175Z,95474.30
2019-05-02T03:09:49.416Z,95472.50
2019-05-02T03:12:16.769Z,95471.80
2019-05-02T03:14:47.284Z,95471.00
2019-05-02T03:17:12.921Z,95467.89
2019-05-02T03:19:40.269Z,95466.48
2019-05-02T03:22:07.641Z,95461.88
2019-05-02T03:24:36.768Z,95471.45
2019-05-02T03:27:03.986Z,95466.17
2019-05-02T03:29:41.815Z,95464.59
2019-05-02T03:32:14.020Z,95465.30
2019-05-02T03:34:45.062Z,95462.44
2019-05-02T03:37:03.230Z,95467.37
2019-05-02T03:39:35.899Z,95475.89
2019-05-02T03:42:04.984Z,95470.57
2019-05-02T03:44:31.987Z,95472.43
2019-05-02T03:47:02.214Z,95469.88
2019-05-02T03:49:28.291Z,95461.95
2019-05-02T03:54:24.868Z,95468.98
2019-05-02T03:56:53.385Z,95464.44
2019-05-02T03:59:20.885Z,95464.12
2019-05-02T04:01:47.940Z,95467.33
2019-05-02T04:04:20.492Z,95468.00
2019-05-02T04:06:44.390Z,95466.34
2019-05-02T04:09:11.741Z,95465.16
2019-05-02T04:11:40.902Z,95470.14
2019-05-02T04:14:14.914Z,95470.33
2019-05-02T04:16:36.299Z,95463.92
2019-05-02T04:19:03.338Z,95474.04
2019-05-02T04:21:30.682Z,95469.64
2019-05-02T04:24:07.576Z,95473.64
2019-05-02T04:26:26.544Z,95473.56
2019-05-02T04:28:53.914Z,95469.90
2019-05-02T04:31:24.698Z,95473.50
2019-05-02T04:33:50.106Z,95467.50
2019-05-02T04:36:17.991Z,95466.81
2019-05-02T04:38:51.102Z,95469.64
2019-05-02T04:41:18.717Z,95473.69
2019-05-02T04:43:57.625Z,95471.92
2019-05-02T04:46:30.431Z,95477.27
2019-05-02T04:48:54.041Z,95467.86
2019-05-02T04:51:21.090Z,95478.24
2019-05-02T04:53:49.896Z,95477.52
2019-05-02T04:56:18.849Z,95472.20
2019-05-02T04:58:48.991Z,95473.13
2019-05-02T05:03:58.239Z,95474.08
2019-05-02T05:06:25.014Z,95471.98
2019-05-02T05:08:52.050Z,95472.34
2019-05-02T05:11:24.698Z,95474.43
2019-05-02T05:13:52.442Z,95470.52
2019-05-02T05:16:18.544Z,95477.02
2019-05-02T05:18:49.344Z,95479.02
2019-05-02T05:21:14.954Z,95477.35
2019-05-02T05:23:42.585Z,95480.25
2019-05-02T05:26:09.633Z,95484.70
2019-05-02T05:28:40.476Z,95483.43
2019-05-02T05:31:07.722Z,95478.36
2019-05-02T05:33:34.904Z,95482.50
2019-05-02T05:36:02.033Z,95478.31
2019-05-02T05:38:32.620Z,95479.59
2019-05-02T05:40:58.147Z,95486.23
2019-05-02T05:43:27.546Z,95484.59
2019-05-02T05:46:06.032Z,95486.73
2019-05-02T05:48:23.291Z,95489.66
2019-05-02T05:50:50.334Z,95483.27
2019-05-02T05:53:20.990Z,95485.66
2019-05-02T05:55:47.326Z,95483.23
2019-05-02T05:58:15.787Z,95481.31
2019-05-02T06:00:45.812Z,95487.50
2019-05-02T06:03:14.215Z,95487.09
2019-05-02T06:05:42.319Z,95482.23
2019-05-02T06:08:13.900Z,95479.54
2019-05-02T06:10:43.478Z,95487.84
2019-05-02T06:13:10.890Z,95483.95
2019-05-02T06:15:38.923Z,95488.47
2019-05-02T06:18:06.203Z,95490.54
2019-05-02T06:20:33.649Z,95491.71
2019-05-02T06:23:01.348Z,95491.74
2019-05-02T06:25:34.060Z,95491.03
2019-05-02T06:28:00.223Z,95487.45
2019-05-02T06:30:31.080Z,95494.40
2019-05-02T06:32:56.884Z,95486.52
2019-05-02T06:35:24.240Z,95483.52
2019-05-02T06:37:51.954Z,95489.27
2019-05-02T06:40:20.072Z,95488.01
2019-05-02T06:42:47.110Z,95492.54
2019-05-02T06:45:14.473Z,95491.01
2019-05-02T06:47:43.570Z,95482.25
2019-05-02T06:50:11.720Z,95489.77
2019-05-02T06:52:38.618Z,95481.67
2019-05-02T06:55:05.926Z,95489.53
2019-05-02T06:57:33.031Z,95486.75
2019-05-02T07:00:00.155Z,95490.58
2019-05-02T07:02:28.155Z,95493.97
2019-05-02T07:04:56.508Z,95491.45
2019-05-02T07:07:24.978Z,95480.72
2019-05-02T07:09:52.941Z,95482.42
2019-05-02T07:12:19.980Z,95478.25
2019-05-02T07:14:47.039Z,95482.34
2019-05-02T07:17:14.082Z,95473.58
2019-05-02T07:19:41.560Z,95472.64
2019-05-02T07:22:08.609Z,95481.83
2019-05-02T07:24:35.664Z,95487.80
2019-05-02T07:27:02.801Z,95485.42
2019-05-02T07:29:30.143Z,95488.37
2019-05-02T07:31:57.516Z,95488.63
2019-05-02T07:34:24.566Z,95481.42
2019-05-02T07:36:52.678Z,95488.61
2019-05-02T07:39:20.075Z,95479.19
2019-05-02T07:41:47.432Z,95487.92
2019-05-02T07:44:14.495Z,95482.39
2019-05-02T07:46:51.555Z,95484.53
2019-05-02T07:49:10.623Z,95481.70
2019-05-02T07:51:37.981Z,95477.47
2019-05-02T07:54:05.036Z,95477.95
2019-05-02T07:56:32.410Z,95479.37
2019-05-02T07:58:59.736Z,95471.23
2019-05-02T08:01:28.111Z,95476.69
2019-05-02T08:03:55.467Z,95484.61
2019-05-02T08:06:34.640Z,95477.02
2019-05-02T08:08:51.821Z,95480.27
2019-05-02T08:11:19.170Z,95474.52
2019-05-02T08:13:49.612Z,95473.66
2019-05-02T08:16:15.319Z,95474.17
2019-05-02T08:18:42.610Z,95472.44
2019-05-02T08:21:09.668Z,95477.84
2019-05-02T08:23:36.706Z,95469.02
2019-05-02T08:26:04.039Z,95474.69
2019-05-02T08:28:31.079Z,95475.56
2019-05-02T08:30:58.423Z,95476.56
2019-05-02T08:33:29.303Z,95475.09
2019-05-02T08:35:54.877Z,95479.80
2019-05-02T08:38:22.235Z,95476.43
2019-05-02T08:40:49.795Z,95478.81
2019-05-02T08:43:16.977Z,95466.77
2019-05-02T08:45:44.036Z,95471.15
2019-05-02T08:48:11.343Z,95478.87
2019-05-02T08:50:38.703Z,95464.37
2019-05-02T08:53:05.811Z,95465.44
2019-05-02T08:55:32.872Z,95469.12
2019-05-02T08:57:59.911Z,95476.51
2019-05-02T09:00:27.301Z,95471.63
2019-05-02T09:02:57.015Z,95466.09
2019-05-02T09:05:23.443Z,95461.73
2019-05-02T09:07:50.800Z,95458.09
2019-05-02T09:10:17.869Z,95459.84
2019-05-02T09:12:45.611Z,95455.72
2019-05-02T09:15:13.027Z,95455.18
2019-05-02T09:17:44.607Z,95455.09
2019-05-02T09:20:14.951Z,95448.12
2019-05-02T09:22:37.594Z,95447.39
2019-05-02T09:25:04.637Z,95454.23
2019-05-02T09:27:31.924Z,95443.13
2019-05-02T09:29:58.893Z,95444.45
2019-05-02T09:32:26.622Z,95447.39
2019-05-02T09:34:56.696Z,95445.20
2019-05-02T09:37:22.821Z,95444.64
2019-05-02T09:39:52.447Z,95439.89
2019-05-02T09:42:19.298Z,95445.92
2019-05-02T09:44:48.060Z,95437.47
2019-05-02T09:47:15.411Z,95440.05
2019-05-02T09:49:48.875Z,95435.20
2019-05-02T09:52:11.925Z,95428.92
2019-05-02T09:54:42.499Z,95424.50
2019-05-02T09:57:08.110Z,95422.80
2019-05-02T09:59:35.511Z,95424.12
2019-05-02T10:02:02.851Z,95416.11
2019-05-02T10:04:32.544Z,95416.59
2019-05-02T10:07:00.122Z,95424.06
2019-05-02T10:09:27.480Z,95411.02
2019-05-02T10:11:54.642Z,95409.95
2019-05-02T10:14:22.650Z,95413.64
2019-05-02T10:16:49.824Z,95415.25
2019-05-02T10:19:17.201Z,95408.31
2019-05-02T10:21:46.860Z,95397.91
2019-05-02T10:24:13.550Z,95397.31
2019-05-02T10:26:41.930Z,95395.00
2019-05-02T10:29:09.410Z,95399.48
2019-05-02T10:31:37.799Z,95401.60
2019-05-02T10:34:08.429Z,95395.50
2019-05-02T10:36:35.373Z,95388.52
2019-05-02T10:39:02.832Z,95389.22
2019-05-02T10:41:39.203Z,95382.44
2019-05-02T10:44:02.075Z,95382.55
2019-05-02T10:46:33.503Z,95377.28
2019-05-02T10:48:57.971Z,95376.45
2019-05-02T10:51:26.191Z,95375.28
2019-05-02T10:53:56.331Z,95370.42
2019-05-02T10:56:22.567Z,95368.47
2019-05-02T10:58:52.205Z,95366.94
2019-05-02T11:01:18.702Z,95364.79
2019-05-02T11:03:47.475Z,95361.75
2019-05-02T11:06:14.976Z,95363.53
2019-05-02T11:08:45.993Z,95350.41
2019-05-02T11:11:12.705Z,95359.75
2019-05-02T11:13:39.801Z,95350.84
2019-05-02T11:16:06.845Z,95348.94
2019-05-02T11:18:42.366Z,95339.02
2019-05-02T11:21:08.100Z,95337.70
2019-05-02T11:23:32.825Z,95346.47
2019-05-02T11:26:01.740Z,95348.23
2019-05-02T11:28:29.156Z,95335.65
2019-05-02T11:30:56.990Z,95337.91
2019-05-02T11:33:25.614Z,95336.14
2019-05-02T11:35:53.568Z,95337.52
2019-05-02T11:38:40.471Z,95339.41
2019-05-02T11:40:49.443Z,95336.05
2019-05-02T11:43:16.500Z,95331.43
2019-05-02T11:45:44.618Z,95334.53
2019-05-02T11:48:13.851Z,95331.39
2019-05-02T11:50:42.256Z,95330.03
2019-05-02T11:53:23.325Z,95332.53
2019-05-02T11:55:41.307Z,95319.53
2019-05-02T11:58:09.897Z,95318.56
2019-05-02T12:00:45.362Z,95320.38
2019-05-02T12:03:08.876Z,95319.09
2019-05-02T12:05:39.046Z,95317.41
2019-05-02T12:08:07.997Z,95316.11
2019-05-02T12:10:36.652Z,95309.69
2019-05-02T12:13:06.633Z,95321.36
2019-05-02T12:15:32.367Z,95312.61
2019-05-02T12:18:02.440Z,95305.65
2019-05-02T12:20:33.923Z,95301.91
2019-05-02T12:22:59.437Z,95304.83
2019-05-02T12:25:26.482Z,95299.50
2019-05-02T12:27:53.536Z,95305.20
2019-05-02T12:30:22.765Z,95302.88
2019-05-02T12:32:53.055Z,95304.91
2019-05-02T12:35:22.462Z,95304.95
2019-05-02T12:37:52.364Z,95294.07
2019-05-02T12:40:21.613Z,95297.11
2019-05-02T12:42:48.535Z,95293.08
2019-05-02T12:45:15.596Z,95293.37
2019-05-02T12:47:42.939Z,95301.07
2019-05-02T12:50:12.080Z,95299.83
2019-05-02T12:52:39.215Z,95295.88
2019-05-02T12:55:06.278Z,95293.03
2019-05-02T12:57:33.676Z,95294.96
2019-05-02T13:00:01.928Z,95296.80
2019-05-02T13:02:29.825Z,95283.18
2019-05-02T13:04:57.183Z,95290.69
2019-05-02T13:07:24.527Z,95288.30
2019-05-02T13:09:52.697Z,95288.25
2019-05-02T13:12:20.283Z,95279.39
2019-05-02T13:14:47.615Z,95262.41
2019-05-02T13:17:14.663Z,95270.70
2019-05-02T13:19:55.184Z,95268.87
2019-05-02T13:22:12.453Z,95261.68
2019-05-02T13:24:40.007Z,95261.98
2019-05-02T13:27:07.414Z,95266.44
2019-05-02T13:29:34.492Z,95268.29
2019-05-02T13:32:01.752Z,95262.94
2019-05-02T13:34:29.240Z,95258.02
2019-05-02T13:36:57.960Z,95259.78
2019-05-02T13:39:25.222Z,95264.22
2019-05-02T13:41:52.636Z,95253.13
2019-05-02T13:44:19.683Z,95244.11
2019-05-02T13:46:46.740Z,95248.23
2019-05-02T13:49:13.785Z,95240.44
2019-05-02T13:51:42.635Z,95247.38
2019-05-02T13:54:10.133Z,95243.41
2019-05-02T13:56:37.199Z,95244.83
2019-05-02T13:59:04.237Z,95239.80
2019-05-02T14:01:31.692Z,95230.83
2019-05-02T14:04:03.673Z,95233.28
2019-05-02T14:06:29.875Z,95217.32
2019-05-02T14:08:56.905Z,95223.17
2019-05-02T14:11:23.971Z,95210.12
2019-05-02T14:13:52.148Z,95209.35
2019-05-02T14:16:22.237Z,95209.61
2019-05-02T14:18:49.354Z,95203.49
2019-05-02T14:21:16.405Z,95202.49
2019-05-02T14:23:43.797Z,95203.81
2019-05-02T14:26:11.700Z,95195.73
2019-05-02T14:28:38.766Z,95188.53
2019-05-02T14:31:05.815Z,95183.01
2019-05-02T14:33:33.177Z,95175.06
2019-05-02T14:36:01.794Z,95163.45
2019-05-02T14:38:29.264Z,95164.91
2019-05-02T14:40:56.315Z,95161.48
2019-05-02T14:43:23.683Z,95162.52
2019-05-02T14:45:57.418Z,95161.34
2019-05-02T14:48:22.248Z,95155.59
2019-05-02T14:50:48.807Z,95152.08
2019-05-02T14:53:16.886Z,95151.50
2019-05-02T14:55:45.254Z,95156.66
2019-05-02T14:58:12.621Z,95154.44
2019-05-02T15:00:45.870Z,95158.27
2019-05-02T15:03:08.714Z,95152.97
2019-05-02T15:05:35.750Z,95154.83
2019-05-02T15:08:06.748Z,95154.55
2019-05-02T15:10:35.014Z,95151.24
2019-05-02T15:13:03.823Z,95149.55
2019-05-02T15:15:33.585Z,95148.77
2019-05-02T15:17:59.564Z,95145.30
2019-05-02T15:20:38.671Z,95141.83
2019-05-02T15:22:55.699Z,95144.35
2019-05-02T15:25:22.746Z,95145.86
2019-05-02T15:27:55.462Z,95147.86
2019-05-02T15:30:18.793Z,95141.47
2019-05-02T15:32:46.629Z,95140.02
2019-05-02T15:35:17.697Z,95139.62
2019-05-02T15:37:42.688Z,95133.59
2019-05-02T15:42:39.143Z,95139.02
2019-05-02T15:45:06.182Z,95133.31
2019-05-02T15:47:37.100Z,95133.97
2019-05-02T15:50:02.995Z,95130.30
2019-05-02T15:52:32.667Z,95124.61
2019-05-02T15:55:03.532Z,95128.48
2019-05-02T15:57:32.705Z,95123.24
2019-05-02T15:59:57.710Z,95125.38
2019-05-02T16:02:26.630Z,95119.38
2019-05-02T16:04:57.014Z,95123.30
2019-05-02T16:07:24.456Z,95123.59
2019-05-02T16:09:55.873Z,95126.48
2019-05-02T16:12:22.116Z,95125.59
2019-05-02T16:14:49.058Z,95113.92
2019-05-02T16:17:17.753Z,95110.70
2019-05-02T16:19:44.948Z,95112.48
2019-05-02T16:22:12.099Z,95113.67
2019-05-02T16:24:44.002Z,95120.12
2019-05-02T16:27:09.342Z,95135.28
2019-05-02T16:29:36.591Z,95147.23
2019-05-02T16:32:05.539Z,95151.89
2019-05-02T16:34:35.334Z,95161.14
2019-05-02T16:37:01.934Z,95170.70
2019-05-02T16:39:32.458Z,95175.17
2019-05-02T16:42:12.397Z,95185.50
2019-05-02T16:47:14.093Z,95184.97
2019-05-02T16:49:41.950Z,95178.45
2019-05-02T16:52:10.443Z,95180.24
2019-05-02T16:54:41.684Z,95191.82
2019-05-02T16:57:06.819Z,95187.91
2019-05-02T17:02:17.879Z,95200.55
2019-05-02T17:04:45.360Z,95203.69
2019-05-02T17:07:22.104Z,95212.56
2019-05-02T17:12:37.149Z,95214.65
2019-05-02T17:17:42.328Z,95213.65
2019-05-02T17:25:32.431Z,95214.61
2019-05-02T17:28:10.255Z,95207.27
2019-05-02T17:33:25.893Z,95214.30
2019-05-02T17:41:07.982Z,95226.19
2019-05-02T17:43:37.380Z,95234.42
2019-05-02T17:53:54.242Z,95236.44
2019-05-02T17:59:06.347Z,95242.17
2019-05-02T18:01:35.169Z,95243.00
2019-05-02T18:04:06.686Z,95237.28
2019-05-02T18:06:36.457Z,95226.75
2019-05-02T18:09:15.699Z,95231.05
2019-05-02T18:11:43.009Z,95229.24
2019-05-02T18:14:21.076Z,95224.59
2019-05-02T18:19:31.603Z,95227.83
2019-05-02T18:22:08.315Z,95226.66
2019-05-02T18:24:37.351Z,95226.05
2019-05-02T18:27:08.273Z,95233.08
2019-05-02T18:29:42.614Z,95227.36
2019-05-02T18:32:09.915Z,95220.23
2019-05-02T18:34:41.881Z,95224.53
2019-05-02T18:37:09.190Z,95227.83
2019-05-02T18:39:44.777Z,95230.56
2019-05-02T18:42:08.874Z,95233.05
2019-05-02T18:44:39.795Z,95233.12
2019-05-02T18:47:06.985Z,95238.96
2019-05-02T18:49:43.536Z,95233.12
2019-05-02T18:57:32.765Z,95245.37
2019-05-02T19:00:02.019Z,95243.01
2019-05-02T19:02:35.299Z,95250.41
2019-05-02T19:05:02.005Z,95253.77
2019-05-02T19:07:33.256Z,95262.47
2019-05-02T19:09:58.958Z,95268.37
2019-05-02T19:15:03.161Z,95253.83
2019-05-02T19:17:30.400Z,95256.38
2019-05-02T19:19:57.599Z,95255.38
2019-05-02T19:22:24.851Z,95262.09
2019-05-02T19:25:05.091Z,95273.78
2019-05-02T19:27:33.101Z,95268.81
2019-05-02T19:30:12.705Z,95266.45
2019-05-02T19:32:41.668Z,95268.69
2019-05-02T19:35:18.191Z,95263.16
2019-05-02T19:37:48.412Z,95272.98
2019-05-02T19:40:20.150Z,95276.03
2019-05-02T19:45:26.143Z,95285.91
2019-05-02T19:47:58.992Z,95289.64
2019-05-02T19:50:31.882Z,95281.31
2019-05-02T19:53:02.007Z,95285.30
2019-05-02T19:58:16.969Z,95277.95
2019-05-02T20:00:48.443Z,95282.55
2019-05-02T20:03:21.869Z,95281.56
2019-05-02T20:06:02.541Z,95284.36
2019-05-02T20:14:00.503Z,95287.66
2019-05-02T20:16:26.767Z,95284.23
2019-05-02T20:18:54.006Z,95294.74
2019-05-02T20:21:27.436Z,95286.41
2019-05-02T20:23:51.237Z,95288.71
2019-05-02T20:26:18.313Z,95294.12
2019-05-02T20:28:45.642Z,95296.61
2019-05-02T20:31:12.688Z,95296.73
2019-05-02T20:33:39.817Z,95298.09
2019-05-02T20:36:08.123Z,95296.11
2019-05-02T20:38:35.492Z,95289.58
2019-05-02T20:41:03.034Z,95283.05
2019-05-02T20:43:32.123Z,95281.44
2019-05-02T20:45:59.090Z,95285.48
2019-05-02T20:48:26.126Z,95282.37
2019-05-02T20:50:53.171Z,95287.47
2019-05-02T20:53:30.724Z,95285.91
2019-05-02T20:55:48.959Z,95287.27
2019-05-02T20:58:16.077Z,95285.16
2019-05-02T21:00:43.120Z,95288.20
2019-05-02T21:03:11.975Z,95289.06
2019-05-02T21:05:39.276Z,95282.66
2019-05-02T21:08:06.483Z,95279.81
2019-05-02T21:10:33.527Z,95278.88
2019-05-02T21:13:02.063Z,95285.28
2019-05-02T21:15:29.592Z,95281.73
2019-05-02T21:17:56.641Z,95287.37
2019-05-02T21:20:24.651Z,95282.52
2019-05-02T21:22:53.031Z,95285.00
2019-05-02T21:25:20.223Z,95288.72
2019-05-02T21:27:47.542Z,95283.74
2019-05-02T21:30:14.583Z,95284.78
2019-05-02T21:32:42.856Z,95285.83
2019-05-02T21:35:11.781Z,95286.14
2019-05-02T21:37:38.960Z,95286.19
2019-05-02T21:40:06.315Z,95291.09
2019-05-02T21:42:33.368Z,95295.99
2019-05-02T21:45:02.322Z,95298.28
2019-05-02T21:47:31.875Z,95295.91
2019-05-02T21:50:01.701Z,95300.50
2019-05-02T21:52:28.358Z,95297.70
2019-05-02T21:54:55.671Z,95291.27
2019-05-02T21:57:22.955Z,95294.55
2019-05-02T21:59:50.280Z,95295.85
2019-05-02T22:02:17.632Z,95298.95
2019-05-02T22:04:47.257Z,95302.02
2019-05-02T22:07:14.591Z,95303.00
2019-05-02T22:09:41.963Z,95300.26
2019-05-02T22:12:09.002Z,95303.67
2019-05-02T22:14:36.058Z,95299.59
2019-05-02T22:17:03.094Z,95309.52
2019-05-02T22:19:32.324Z,95309.39
2019-05-02T22:22:01.522Z,95312.31
2019-05-02T22:24:29.253Z,95315.33
2019-05-02T22:26:56.630Z,95314.66
2019-05-02T22:29:23.686Z,95315.33
2019-05-02T22:31:54.245Z,95313.75
2019-05-02T22:34:19.474Z,95321.93
2019-05-02T22:36:46.847Z,95321.13
2019-05-02T22:39:13.899Z,95324.36
2019-05-02T22:41:41.997Z,95324.36
2019-05-02T22:44:12.347Z,95323.73
2019-05-02T22:46:39.358Z,95323.05
2019-05-02T22:49:06.483Z,95325.34
2019-05-02T22:51:33.781Z,95328.81
2019-05-02T22:54:02.845Z,95327.14
2019-05-02T22:56:31.639Z,95327.59
2019-05-02T22:58:59.615Z,95329.08
2019-05-02T23:01:26.650Z,95335.52
2019-05-02T23:03:53.960Z,95333.23
2019-05-02T23:06:21.251Z,95342.31
2019-05-02T23:08:48.302Z,95338.94
2019-05-02T23:11:15.347Z,95331.55
2019-05-02T23:13:42.405Z,95333.39
2019-05-02T23:16:09.755Z,95335.78
2019-05-02T23:18:37.127Z,95332.54
2019-05-02T23:21:04.181Z,95332.05
2019-05-02T23:23:32.763Z,95322.29
2019-05-02T23:26:00.111Z,95319.86
2019-05-02T23:28:27.145Z,95327.01
2019-05-02T23:30:54.502Z,95326.34
2019-05-02T23:33:23.510Z,95331.05
2019-05-02T23:35:52.141Z,95330.20
2019-05-02T23:38:21.658Z,95322.17
2019-05-02T23:40:48.627Z,95328.64
2019-05-02T23:43:15.982Z,95323.70
2019-05-02T23:45:43.040Z,95323.34
2019-05-02T23:48:10.318Z,95329.86
2019-05-02T23:50:37.369Z,95317.80
2019-05-02T23:53:04.687Z,95316.19
2019-05-02T23:55:32.278Z,95312.14
2019-05-02T23:58:00.301Z,95316.73
